createdAt,value
2024-05-09T00:00:41.486Z,9.63
2024-05-09T00:03:10.885Z,9.45
2024-05-09T00:05:41.597Z,10.68
2024-05-09T00:08:10.475Z,8.23
2024-05-09T00:10:39.895Z,7.97
2024-05-09T00:13:08.808Z,8.73
2024-05-09T00:15:36.813Z,9.85
2024-05-09T00:18:05.956Z,10.88
2024-05-09T00:20:38.808Z,9.18
2024-05-09T00:23:09.543Z,8.25
2024-05-09T00:25:38.127Z,11.45
2024-05-09T00:28:05.996Z,11.93
2024-05-09T00:30:35.985Z,9.65
2024-05-09T00:33:09.456Z,17.63
2024-05-09T00:35:38.402Z,10.73
2024-05-09T00:38:06.003Z,10.10
2024-05-09T00:40:41.023Z,9.07
2024-05-09T00:43:11.822Z,9.95
2024-05-09T00:45:39.669Z,9.15
2024-05-09T00:48:09.555Z,10.90
2024-05-09T00:50:40.790Z,13.90
2024-05-09T00:53:11.111Z,11.18
2024-05-09T00:55:39.789Z,11.40
2024-05-09T00:58:09.298Z,11.60
2024-05-09T01:00:39.975Z,9.93
2024-05-09T01:03:11.125Z,8.98
2024-05-09T01:05:40.593Z,9.73
2024-05-09T01:08:09.260Z,12.23
2024-05-09T01:10:37.664Z,14.85
2024-05-09T01:13:05.978Z,11.88
2024-05-09T01:15:35.179Z,11.88
2024-05-09T01:18:13.815Z,10.52
2024-05-09T01:20:44.113Z,13.13
2024-05-09T01:23:14.804Z,10.05
2024-05-09T01:25:44.360Z,10.07
2024-05-09T01:28:11.839Z,10.45
2024-05-09T01:30:39.089Z,10.35
2024-05-09T01:33:08.922Z,8.40
2024-05-09T01:35:39.264Z,9.00
2024-05-09T01:38:07.680Z,8.25
2024-05-09T01:40:38.812Z,11.13
2024-05-09T01:43:11.678Z,9.98
2024-05-09T01:45:40.350Z,10.38
2024-05-09T01:48:08.856Z,10.57
2024-05-09T01:50:40.259Z,10.30
2024-05-09T01:53:13.974Z,10.32
2024-05-09T01:55:42.300Z,12.20
2024-05-09T01:58:09.908Z,9.65
2024-05-09T02:00:41.091Z,9.20
2024-05-09T02:03:14.018Z,6.72
2024-05-09T02:05:48.171Z,12.52
2024-05-09T02:08:20.855Z,10.07
2024-05-09T02:10:49.955Z,9.63
2024-05-09T02:13:17.828Z,8.23
2024-05-09T02:15:45.192Z,11.32
2024-05-09T02:18:13.138Z,8.68
2024-05-09T02:20:41.963Z,12.50
2024-05-09T02:23:10.187Z,7.78
2024-05-09T02:25:37.480Z,8.60
2024-05-09T02:28:05.125Z,11.77
2024-05-09T02:30:40.309Z,15.45
2024-05-09T02:33:13.722Z,11.40
2024-05-09T02:35:43.648Z,9.15
2024-05-09T02:38:12.314Z,10.57
2024-05-09T02:40:40.559Z,8.32
2024-05-09T02:43:10.391Z,13.70
2024-05-09T02:45:39.362Z,12.32
2024-05-09T02:48:07.655Z,7.68
2024-05-09T02:50:39.093Z,8.57
2024-05-09T02:53:08.936Z,12.07
2024-05-09T02:55:37.026Z,10.73
2024-05-09T02:58:04.431Z,11.98
2024-05-09T03:00:38.390Z,10.20
2024-05-09T03:03:10.434Z,9.45
2024-05-09T03:05:40.064Z,11.45
2024-05-09T03:08:07.986Z,10.68
2024-05-09T03:10:37.540Z,15.07
2024-05-09T03:13:07.802Z,10.63
2024-05-09T03:15:35.082Z,10.43
2024-05-09T03:18:03.078Z,9.60
2024-05-09T03:20:34.375Z,10.95
2024-05-09T03:23:03.924Z,11.57
2024-05-09T03:25:31.495Z,13.85
2024-05-09T03:27:59.490Z,12.93
2024-05-09T03:30:38.961Z,12.82
2024-05-09T03:33:15.828Z,9.10
2024-05-09T03:35:44.351Z,12.43
2024-05-09T03:38:11.686Z,10.18
2024-05-09T03:40:49.015Z,11.63
2024-05-09T03:43:17.533Z,9.50
2024-05-09T03:45:45.374Z,10.02
2024-05-09T03:48:13.224Z,9.45
2024-05-09T03:50:40.888Z,10.27
2024-05-09T03:53:11.301Z,15.00
2024-05-09T03:55:39.271Z,10.63
2024-05-09T03:58:08.288Z,10.13
2024-05-09T04:00:39.199Z,33.87
2024-05-09T04:03:10.568Z,10.32
2024-05-09T04:05:44.640Z,11.35
2024-05-09T04:08:12.248Z,9.27
2024-05-09T04:10:39.503Z,18.92
2024-05-09T04:13:06.657Z,14.75
2024-05-09T04:15:33.976Z,9.05
2024-05-09T04:18:01.981Z,11.15
2024-05-09T04:20:37.539Z,9.77
2024-05-09T04:23:11.033Z,10.73
2024-05-09T04:25:38.552Z,9.75
2024-05-09T04:28:06.008Z,18.27
2024-05-09T04:30:38.414Z,10.05
2024-05-09T04:33:10.583Z,8.35
2024-05-09T04:35:40.024Z,10.03
2024-05-09T04:38:08.186Z,8.85
2024-05-09T04:40:37.119Z,12.43
2024-05-09T04:43:16.311Z,14.52
2024-05-09T04:45:43.616Z,14.70
2024-05-09T04:48:11.618Z,11.15
2024-05-09T04:50:39.951Z,9.15
2024-05-09T04:53:15.073Z,13.13
2024-05-09T04:55:42.453Z,14.90
2024-05-09T04:58:10.508Z,12.30
2024-05-09T05:00:40.201Z,13.35
2024-05-09T05:03:13.023Z,10.55
2024-05-09T05:05:43.618Z,10.80
2024-05-09T05:08:17.224Z,10.82
2024-05-09T05:10:45.828Z,12.55
2024-05-09T05:13:18.512Z,11.68
2024-05-09T05:15:47.500Z,12.90
2024-05-09T05:18:15.779Z,8.95
2024-05-09T05:20:43.255Z,9.63
2024-05-09T05:23:16.080Z,10.57
2024-05-09T05:25:43.928Z,13.63
2024-05-09T05:28:11.544Z,10.35
2024-05-09T05:30:39.435Z,8.85
2024-05-09T05:33:07.687Z,8.50
2024-05-09T05:35:35.278Z,8.95
2024-05-09T05:38:09.562Z,8.80
2024-05-09T05:40:38.580Z,6.15
2024-05-09T05:43:11.002Z,5.60
2024-05-09T05:45:39.226Z,7.28
2024-05-09T05:48:07.762Z,7.82
2024-05-09T05:50:37.624Z,6.43
2024-05-09T05:53:10.273Z,4.15
2024-05-09T05:55:39.415Z,7.07
2024-05-09T05:58:10.809Z,8.68
2024-05-09T06:00:40.290Z,6.32
2024-05-09T06:03:17.498Z,4.65
2024-05-09T06:05:46.296Z,4.03
2024-05-09T06:08:13.762Z,5.00
2024-05-09T06:10:41.893Z,6.45
2024-05-09T06:13:13.964Z,8.90
2024-05-09T06:15:42.546Z,5.00
2024-05-09T06:18:11.689Z,5.03
2024-05-09T06:20:42.825Z,6.40
2024-05-09T06:23:11.158Z,3.58
2024-05-09T06:25:38.738Z,11.43
2024-05-09T06:28:06.441Z,11.32
2024-05-09T06:30:40.180Z,5.43
2024-05-09T06:33:11.988Z,3.53
2024-05-09T06:35:41.297Z,4.00
2024-05-09T06:38:09.351Z,4.07
2024-05-09T06:40:40.551Z,6.78
2024-05-09T06:43:17.917Z,7.65
2024-05-09T06:45:48.477Z,4.95
2024-05-09T06:48:18.647Z,5.13
2024-05-09T06:50:46.687Z,5.25
2024-05-09T06:53:17.808Z,15.93
2024-05-09T06:55:45.246Z,14.80
2024-05-09T06:58:12.442Z,8.75
2024-05-09T07:00:41.666Z,4.25
2024-05-09T07:03:17.140Z,6.82
2024-05-09T07:05:47.551Z,6.32
2024-05-09T07:08:16.369Z,4.43
2024-05-09T07:10:43.942Z,5.07
2024-05-09T07:13:12.844Z,4.07
2024-05-09T07:15:42.740Z,5.03
2024-05-09T07:18:18.384Z,4.72
2024-05-09T07:20:47.642Z,2.78
2024-05-09T07:23:16.089Z,4.70
2024-05-09T07:25:43.615Z,5.45
2024-05-09T07:28:21.894Z,5.53
2024-05-09T07:30:49.060Z,6.60
2024-05-09T07:33:22.286Z,3.80
2024-05-09T07:35:50.906Z,4.50
2024-05-09T07:38:18.339Z,6.68
2024-05-09T07:40:45.688Z,7.40
2024-05-09T07:43:16.363Z,6.22
2024-05-09T07:45:51.891Z,6.00
2024-05-09T07:52:39.045Z,3.95
2024-05-09T07:53:47.464Z,5.68
2024-05-09T07:56:19.688Z,4.28
2024-05-09T07:58:50.983Z,3.22
2024-05-09T08:01:18.785Z,2.97
2024-05-09T08:03:46.647Z,5.65
2024-05-09T08:06:14.251Z,3.78
2024-05-09T08:08:41.672Z,5.03
2024-05-09T08:11:08.864Z,2.78
2024-05-09T08:13:37.581Z,6.50
2024-05-09T08:16:05.376Z,3.47
2024-05-09T08:18:33.082Z,2.90
2024-05-09T08:21:00.399Z,4.72
2024-05-09T08:23:28.918Z,3.28
2024-05-09T08:25:56.473Z,5.18
2024-05-09T08:28:23.925Z,5.82
2024-05-09T08:30:51.246Z,4.90
2024-05-09T08:33:18.645Z,5.97
2024-05-09T08:35:45.878Z,7.20
2024-05-09T08:38:13.268Z,2.75
2024-05-09T08:40:41.951Z,5.18
2024-05-09T08:43:11.806Z,4.13
2024-05-09T08:45:43.964Z,3.65
2024-05-09T08:48:15.124Z,7.30
2024-05-09T08:50:44.876Z,4.88
2024-05-09T08:53:16.355Z,3.95
2024-05-09T08:55:44.765Z,5.80
2024-05-09T08:58:19.902Z,4.45
2024-05-09T09:00:48.695Z,3.05
2024-05-09T09:03:19.512Z,9.15
2024-05-09T09:05:58.496Z,3.58
2024-05-09T09:08:26.585Z,4.55
2024-05-09T09:10:57.741Z,2.92
2024-05-09T09:13:25.347Z,4.57
2024-05-09T09:15:57.559Z,4.03
2024-05-09T09:18:26.929Z,3.13
2024-05-09T09:20:54.549Z,3.63
2024-05-09T09:23:22.146Z,2.80
2024-05-09T09:25:49.930Z,7.07
2024-05-09T09:28:17.219Z,5.38
2024-05-09T09:30:44.621Z,2.50
2024-05-09T09:33:12.417Z,5.03
2024-05-09T09:35:40.798Z,3.83
2024-05-09T09:38:10.658Z,2.88
2024-05-09T09:40:46.553Z,3.75
2024-05-09T09:43:20.684Z,7.43
2024-05-09T09:45:52.999Z,5.18
2024-05-09T09:48:22.767Z,2.80
2024-05-09T09:50:52.607Z,7.18
2024-05-09T09:53:20.177Z,3.58
2024-05-09T09:55:48.482Z,3.20
2024-05-09T09:58:18.031Z,2.75
2024-05-09T10:00:46.131Z,4.88
2024-05-09T10:03:13.639Z,8.45
2024-05-09T10:05:44.066Z,4.15
2024-05-09T10:08:14.935Z,4.80
2024-05-09T10:10:50.609Z,3.47
2024-05-09T10:13:20.137Z,2.40
2024-05-09T10:15:51.439Z,3.75
2024-05-09T10:18:28.358Z,2.80
2024-05-09T10:20:58.128Z,5.97
2024-05-09T10:23:28.919Z,3.30
2024-05-09T10:26:00.870Z,3.53
2024-05-09T10:28:32.059Z,4.95
2024-05-09T10:31:15.785Z,3.15
2024-05-09T10:33:51.864Z,5.90
2024-05-09T10:36:21.020Z,2.85
2024-05-09T10:38:53.168Z,4.13
2024-05-09T10:41:21.427Z,2.80
2024-05-09T10:43:49.084Z,5.40
2024-05-09T10:46:16.965Z,2.95
2024-05-09T10:48:44.959Z,9.65
2024-05-09T10:51:13.476Z,5.05
2024-05-09T10:53:42.653Z,3.88
2024-05-09T10:56:10.720Z,3.20
2024-05-09T10:58:37.868Z,4.68
2024-05-09T11:01:06.954Z,2.53
2024-05-09T11:03:35.834Z,4.32
2024-05-09T11:06:03.982Z,15.27
2024-05-09T11:08:32.952Z,3.28
2024-05-09T11:11:00.701Z,4.47
2024-05-09T11:13:31.732Z,3.50
2024-05-09T11:16:03.462Z,4.78
2024-05-09T11:18:35.566Z,3.75
2024-05-09T11:21:15.389Z,20.02
2024-05-09T11:23:42.796Z,6.18
2024-05-09T11:26:11.189Z,3.38
2024-05-09T11:28:39.522Z,5.85
2024-05-09T11:31:08.902Z,3.47
2024-05-09T11:33:38.934Z,5.75
2024-05-09T11:36:07.489Z,3.00
2024-05-09T11:38:34.707Z,3.78
2024-05-09T11:41:04.763Z,3.15
2024-05-09T11:43:32.483Z,2.95
2024-05-09T11:46:00.527Z,4.40
2024-05-09T11:48:28.233Z,4.75
2024-05-09T11:50:57.191Z,6.88
2024-05-09T11:53:24.505Z,4.10
2024-05-09T11:55:51.691Z,3.60
2024-05-09T11:58:19.607Z,5.95
2024-05-09T12:00:47.381Z,16.17
2024-05-09T12:03:15.101Z,4.70
2024-05-09T12:05:42.674Z,5.95
2024-05-09T12:08:10.159Z,6.38
2024-05-09T12:10:37.827Z,3.75
2024-05-09T12:13:06.813Z,4.07
2024-05-09T12:15:37.888Z,3.80
2024-05-09T12:18:07.429Z,3.22
2024-05-09T12:20:38.607Z,5.05
2024-05-09T12:23:09.491Z,4.32
2024-05-09T12:25:40.495Z,4.20
2024-05-09T12:28:08.727Z,3.78
2024-05-09T12:30:40.147Z,2.53
2024-05-09T12:33:12.743Z,3.40
2024-05-09T12:35:43.446Z,5.68
2024-05-09T12:38:13.050Z,3.90
2024-05-09T12:40:40.364Z,5.13
2024-05-09T12:43:09.094Z,4.50
2024-05-09T12:45:37.933Z,5.57
2024-05-09T12:48:08.515Z,9.25
2024-05-09T12:50:37.005Z,5.78
2024-05-09T12:53:05.191Z,6.38
2024-05-09T12:55:41.157Z,4.43
2024-05-09T12:58:17.553Z,13.45
2024-05-09T13:00:45.560Z,5.95
2024-05-09T13:03:13.342Z,2.53
2024-05-09T13:05:45.365Z,6.82
2024-05-09T13:08:13.625Z,3.05
2024-05-09T13:10:41.334Z,4.05
2024-05-09T13:13:12.330Z,3.47
2024-05-09T13:15:39.978Z,4.68
2024-05-09T13:18:07.972Z,3.30
2024-05-09T13:20:36.948Z,3.08
2024-05-09T13:23:07.048Z,3.33
2024-05-09T13:25:35.415Z,2.95
2024-05-09T13:28:04.134Z,3.75
2024-05-09T13:30:39.175Z,2.55
2024-05-09T13:33:13.840Z,3.13
2024-05-09T13:35:47.090Z,3.80
2024-05-09T13:38:18.717Z,3.05
2024-05-09T13:40:46.416Z,7.32
2024-05-09T13:43:14.261Z,2.72
2024-05-09T13:45:41.739Z,7.75
2024-05-09T13:48:10.348Z,3.40
2024-05-09T13:50:37.877Z,2.35
2024-05-09T13:53:06.915Z,3.50
2024-05-09T13:55:37.403Z,4.43
2024-05-09T13:58:05.066Z,3.47
2024-05-09T14:00:43.844Z,3.08
2024-05-09T14:03:16.961Z,5.10
2024-05-09T14:05:46.609Z,2.80
2024-05-09T14:08:16.079Z,2.90
2024-05-09T14:10:46.598Z,6.03
2024-05-09T14:13:14.893Z,4.88
2024-05-09T14:15:42.553Z,3.13
2024-05-09T14:18:13.092Z,2.53
2024-05-09T14:20:42.024Z,2.38
2024-05-09T14:23:09.394Z,6.25
2024-05-09T14:25:39.787Z,2.47
2024-05-09T14:28:09.578Z,5.28
2024-05-09T14:30:38.492Z,2.40
2024-05-09T14:33:08.006Z,3.30
2024-05-09T14:35:37.636Z,3.58
2024-05-09T14:38:06.383Z,3.10
2024-05-09T14:40:40.748Z,3.17
2024-05-09T14:43:15.434Z,2.47
2024-05-09T14:45:44.047Z,4.30
2024-05-09T14:48:14.319Z,4.07
2024-05-09T14:50:42.207Z,5.85
2024-05-09T14:53:11.057Z,2.58
2024-05-09T14:55:40.316Z,4.65
2024-05-09T14:58:09.825Z,3.05
2024-05-09T15:00:42.263Z,2.42
2024-05-09T15:03:12.174Z,7.22
2024-05-09T15:05:39.494Z,6.40
2024-05-09T15:08:08.159Z,2.55
2024-05-09T15:10:36.940Z,2.65
2024-05-09T15:13:07.315Z,3.30
2024-05-09T15:15:36.586Z,2.17
2024-05-09T15:18:07.577Z,3.45
2024-05-09T15:20:37.103Z,2.60
2024-05-09T15:23:07.058Z,3.33
2024-05-09T15:25:36.836Z,4.00
2024-05-09T15:28:07.954Z,6.15
2024-05-09T15:30:35.796Z,2.47
2024-05-09T15:33:04.097Z,4.10
2024-05-09T15:35:32.075Z,4.07
2024-05-09T15:38:00.375Z,3.67
2024-05-09T15:40:36.223Z,4.47
2024-05-09T15:43:09.900Z,2.25
2024-05-09T15:45:39.281Z,1.65
2024-05-09T15:48:08.174Z,3.20
2024-05-09T15:50:40.756Z,5.93
2024-05-09T15:53:11.583Z,3.30
2024-05-09T15:55:39.586Z,2.10
2024-05-09T15:58:07.656Z,2.88
2024-05-09T16:00:39.577Z,12.85
2024-05-09T16:03:14.611Z,2.22
2024-05-09T16:05:46.915Z,5.97
2024-05-09T16:08:15.852Z,21.85
2024-05-09T16:10:46.146Z,8.68
2024-05-09T16:13:14.944Z,2.67
2024-05-09T16:15:43.909Z,2.78
2024-05-09T16:18:12.081Z,2.60
2024-05-09T16:20:41.697Z,3.28
2024-05-09T16:23:11.188Z,9.98
2024-05-09T16:25:39.160Z,2.45
2024-05-09T16:28:09.880Z,3.15
2024-05-09T16:30:39.852Z,2.92
2024-05-09T16:33:08.618Z,3.08
2024-05-09T16:35:37.401Z,5.43
2024-05-09T16:38:06.226Z,2.33
2024-05-09T16:40:38.452Z,2.42
2024-05-09T16:43:09.272Z,4.57
2024-05-09T16:45:37.915Z,2.28
2024-05-09T16:48:08.068Z,4.45
2024-05-09T16:50:36.240Z,2.47
2024-05-09T16:53:05.639Z,3.92
2024-05-09T16:55:33.999Z,2.35
2024-05-09T16:58:02.763Z,3.45
2024-05-09T17:00:42.326Z,8.18
2024-05-09T17:03:14.232Z,3.60
2024-05-09T17:05:43.352Z,5.55
2024-05-09T17:08:11.189Z,8.77
2024-05-09T17:10:38.609Z,2.13
2024-05-09T17:13:07.405Z,3.92
2024-05-09T17:15:37.000Z,1.95
2024-05-09T17:18:06.711Z,2.28
2024-05-09T17:20:36.768Z,1.80
2024-05-09T17:23:13.325Z,3.08
2024-05-09T17:25:42.046Z,4.55
2024-05-09T17:28:10.503Z,2.40
2024-05-09T17:30:39.942Z,3.47
2024-05-09T17:33:10.248Z,2.65
2024-05-09T17:35:38.902Z,1.88
2024-05-09T17:38:06.991Z,2.92
2024-05-09T17:40:36.822Z,2.30
2024-05-09T17:43:10.547Z,3.53
2024-05-09T17:45:40.363Z,3.15
2024-05-09T17:48:10.417Z,5.97
2024-05-09T17:50:39.337Z,4.53
2024-05-09T17:53:07.268Z,2.05
2024-05-09T17:55:35.524Z,2.08
2024-05-09T17:58:04.618Z,2.70
2024-05-09T18:00:38.068Z,3.20
2024-05-09T18:03:10.691Z,2.45
2024-05-09T18:05:38.636Z,4.95
2024-05-09T18:08:07.292Z,3.00
2024-05-09T18:10:38.171Z,3.28
2024-05-09T18:13:10.720Z,3.83
2024-05-09T18:15:38.677Z,3.60
2024-05-09T18:18:07.183Z,5.35
2024-05-09T18:20:43.111Z,2.00
2024-05-09T18:23:17.839Z,4.07
2024-05-09T18:25:47.149Z,6.05
2024-05-09T18:28:15.938Z,2.58
2024-05-09T18:30:43.548Z,3.83
2024-05-09T18:33:11.679Z,3.15
2024-05-09T18:35:41.206Z,3.28
2024-05-09T18:38:09.440Z,2.25
2024-05-09T18:40:38.520Z,2.00
2024-05-09T18:43:08.641Z,12.63
2024-05-09T18:45:37.952Z,1.90
2024-05-09T18:48:07.225Z,4.10
2024-05-09T18:50:39.107Z,1.85
2024-05-09T18:53:10.577Z,2.83
2024-05-09T18:55:38.515Z,2.35
2024-05-09T18:58:06.023Z,4.00
2024-05-09T19:00:37.083Z,3.08
2024-05-09T19:03:12.860Z,2.53
2024-05-09T19:05:43.732Z,2.92
2024-05-09T19:08:12.763Z,3.83
2024-05-09T19:10:40.502Z,2.97
2024-05-09T19:13:11.970Z,4.13
2024-05-09T19:15:42.485Z,2.63
2024-05-09T19:18:11.256Z,6.97
2024-05-09T19:20:39.497Z,3.17
2024-05-09T19:23:07.823Z,3.08
2024-05-09T19:25:37.322Z,3.00
2024-05-09T19:28:05.627Z,3.58
2024-05-09T19:30:39.028Z,4.68
2024-05-09T19:33:11.141Z,3.58
2024-05-09T19:35:39.566Z,3.83
2024-05-09T19:38:07.050Z,1.83
2024-05-09T19:40:35.323Z,3.10
2024-05-09T19:43:04.240Z,3.00
2024-05-09T19:45:35.790Z,3.75
2024-05-09T19:48:04.243Z,2.58
2024-05-09T19:50:39.872Z,5.05
2024-05-09T19:53:11.441Z,5.45
2024-05-09T19:55:39.136Z,2.92
2024-05-09T19:58:07.896Z,5.30
2024-05-09T20:00:41.501Z,3.15
2024-05-09T20:03:12.536Z,2.67
2024-05-09T20:05:40.389Z,3.00
2024-05-09T20:08:07.985Z,2.72
2024-05-09T20:10:36.463Z,2.75
2024-05-09T20:13:06.980Z,4.80
2024-05-09T20:15:37.088Z,3.45
2024-05-09T20:18:05.311Z,2.58
2024-05-09T20:20:39.023Z,3.70
2024-05-09T20:23:09.993Z,3.83
2024-05-09T20:25:37.365Z,3.05
2024-05-09T20:28:06.781Z,3.95
2024-05-09T20:30:35.185Z,4.93
2024-05-09T20:33:05.222Z,3.88
2024-05-09T20:35:33.913Z,3.30
2024-05-09T20:38:02.644Z,2.75
2024-05-09T20:40:34.742Z,3.15
2024-05-09T20:43:05.889Z,5.15
2024-05-09T20:45:33.663Z,7.88
2024-05-09T20:48:04.868Z,4.63
2024-05-09T20:50:40.401Z,6.05
2024-05-09T20:53:11.539Z,5.45
2024-05-09T20:55:40.459Z,5.18
2024-05-09T20:58:08.429Z,6.38
2024-05-09T21:00:40.308Z,4.75
2024-05-09T21:03:12.698Z,4.03
2024-05-09T21:05:41.050Z,7.38
2024-05-09T21:08:08.871Z,7.53
2024-05-09T21:10:37.221Z,7.05
2024-05-09T21:13:06.287Z,6.22
2024-05-09T21:15:34.421Z,6.18
2024-05-09T21:18:02.058Z,4.05
2024-05-09T21:20:32.922Z,5.28
2024-05-09T21:23:01.895Z,6.75
2024-05-09T21:25:29.684Z,5.65
2024-05-09T21:27:57.306Z,8.15
2024-05-09T21:32:54.926Z,5.78
2024-05-09T21:35:22.125Z,9.57
2024-05-09T21:37:49.371Z,5.65
2024-05-09T21:40:26.663Z,4.88
2024-05-09T21:43:00.339Z,6.40
2024-05-09T21:45:27.603Z,5.28
2024-05-09T21:47:54.960Z,5.70
2024-05-09T21:50:28.373Z,3.92
2024-05-09T21:53:03.338Z,5.18
2024-05-09T21:55:30.578Z,5.43
2024-05-09T21:57:57.726Z,6.95
2024-05-09T22:00:32.884Z,4.95
2024-05-09T22:03:04.530Z,4.45
2024-05-09T22:08:20.413Z,4.25
2024-05-09T22:10:48.878Z,4.13
2024-05-09T22:13:18.923Z,7.95
2024-05-09T22:15:46.308Z,3.92
2024-05-09T22:18:13.645Z,8.63
2024-05-09T22:20:45.409Z,7.18
2024-05-09T22:23:13.828Z,4.28
2024-05-09T22:25:41.318Z,3.47
2024-05-09T22:28:09.034Z,5.28
2024-05-09T22:30:39.276Z,6.35
2024-05-09T22:33:09.877Z,3.28
2024-05-09T22:35:38.927Z,5.60
2024-05-09T22:38:06.207Z,5.93
2024-05-09T22:40:42.965Z,6.95
2024-05-09T22:43:24.084Z,5.38
2024-05-09T22:45:54.181Z,4.60
2024-05-09T22:48:22.018Z,5.30
2024-05-09T22:50:49.348Z,3.70
2024-05-09T22:53:16.550Z,3.63
2024-05-09T22:55:43.795Z,4.47
2024-05-09T22:58:11.292Z,4.55
2024-05-09T23:00:38.661Z,3.58
2024-05-09T23:03:06.457Z,3.28
2024-05-09T23:05:33.683Z,2.85
2024-05-09T23:08:02.049Z,5.45
2024-05-09T23:10:35.686Z,4.45
2024-05-09T23:13:05.817Z,4.43
2024-05-09T23:15:33.074Z,4.13
2024-05-09T23:18:00.449Z,5.00
2024-05-09T23:20:35.427Z,5.13
2024-05-09T23:23:10.158Z,4.05
2024-05-09T23:25:38.544Z,3.72
2024-05-09T23:28:06.352Z,5.03
2024-05-09T23:30:38.116Z,3.80
2024-05-09T23:33:09.698Z,5.25
2024-05-09T23:35:37.359Z,3.22
2024-05-09T23:38:04.856Z,4.10
2024-05-09T23:43:02.643Z,8.77
2024-05-09T23:45:29.910Z,4.20
2024-05-09T23:47:57.264Z,4.35
2024-05-09T23:50:33.075Z,3.75
2024-05-09T23:53:03.665Z,4.05
2024-05-09T23:55:31.951Z,3.17
2024-05-09T23:57:59.641Z,3.30
